createdAt,value
2022-07-29T00:02:17.097Z,19.77
2022-07-29T00:04:44.208Z,19.80
2022-07-29T00:07:11.135Z,19.80
2022-07-29T00:09:43.056Z,19.77
2022-07-29T00:12:26.117Z,19.75
2022-07-29T00:14:55.070Z,19.77
2022-07-29T00:17:22.400Z,19.75
2022-07-29T00:19:49.082Z,19.79
2022-07-29T00:22:15.953Z,19.88
2022-07-29T00:24:42.772Z,19.87
2022-07-29T00:27:09.462Z,19.79
2022-07-29T00:29:36.214Z,19.82
2022-07-29T00:32:03.816Z,19.84
2022-07-29T00:34:49.706Z,19.84
2022-07-29T00:37:16.465Z,19.77
2022-07-29T00:39:43.614Z,19.74
2022-07-29T00:42:10.833Z,19.75
2022-07-29T00:44:42.159Z,19.76
2022-07-29T00:47:10.741Z,19.73
2022-07-29T00:49:39.556Z,19.72
2022-07-29T00:52:07.622Z,19.67
2022-07-29T00:54:35.240Z,19.63
2022-07-29T00:57:04.222Z,19.67
2022-07-29T00:59:34.786Z,19.69
2022-07-29T01:02:03.399Z,19.68
2022-07-29T01:04:31.830Z,19.67
2022-07-29T01:06:59.579Z,19.64
2022-07-29T01:09:42.937Z,19.61
2022-07-29T01:12:17.797Z,19.61
2022-07-29T01:14:46.648Z,19.57
2022-07-29T01:17:21.525Z,19.53
2022-07-29T01:19:54.660Z,19.51
2022-07-29T01:22:36.335Z,19.51
2022-07-29T01:25:05.998Z,19.52
2022-07-29T01:28:03.669Z,19.47
2022-07-29T01:30:34.210Z,19.41
2022-07-29T01:33:04.199Z,19.36
2022-07-29T01:35:37.338Z,19.30
2022-07-29T01:38:13.605Z,19.27
2022-07-29T01:40:52.302Z,19.25
2022-07-29T01:43:28.511Z,19.14
2022-07-29T01:46:02.549Z,19.12
2022-07-29T01:48:38.556Z,19.03
2022-07-29T01:51:14.452Z,18.98
2022-07-29T01:54:00.452Z,18.89
2022-07-29T01:56:32.031Z,18.81
2022-07-29T01:58:59.984Z,18.74
2022-07-29T02:01:28.590Z,18.68
2022-07-29T02:03:57.695Z,18.59
2022-07-29T02:06:26.791Z,18.53
2022-07-29T02:08:54.777Z,18.54
2022-07-29T02:11:21.569Z,18.51
2022-07-29T02:13:49.701Z,18.47
2022-07-29T02:16:20.070Z,18.41
2022-07-29T02:18:50.507Z,18.40
2022-07-29T02:21:23.987Z,18.32
2022-07-29T02:23:53.958Z,18.26
2022-07-29T02:26:22.702Z,18.21
2022-07-29T02:28:53.472Z,18.16
2022-07-29T02:31:26.603Z,18.12
2022-07-29T02:33:55.763Z,18.10
2022-07-29T02:36:24.734Z,18.04
2022-07-29T02:38:52.866Z,17.90
2022-07-29T02:41:47.378Z,17.84
2022-07-29T02:44:17.375Z,17.86
2022-07-29T02:46:54.309Z,17.82
2022-07-29T02:49:33.029Z,17.80
2022-07-29T02:52:03.783Z,17.81
2022-07-29T02:54:36.380Z,17.81
2022-07-29T02:57:05.175Z,17.78
2022-07-29T02:59:35.390Z,17.72
2022-07-29T03:02:04.397Z,17.68
2022-07-29T03:04:33.353Z,17.63
2022-07-29T03:07:01.741Z,17.65
2022-07-29T03:09:29.193Z,17.66
2022-07-29T03:11:57.919Z,17.64
2022-07-29T03:14:25.428Z,17.56
2022-07-29T03:16:52.790Z,17.47
2022-07-29T03:19:21.360Z,17.45
2022-07-29T03:21:48.724Z,17.45
2022-07-29T03:24:33.397Z,17.44
2022-07-29T03:27:00.696Z,17.39
2022-07-29T03:29:33.130Z,17.44
2022-07-29T03:32:07.871Z,17.34
2022-07-29T03:34:37.449Z,17.30
2022-07-29T03:37:04.725Z,17.29
2022-07-29T03:39:37.533Z,17.29
2022-07-29T03:42:07.863Z,17.30
2022-07-29T03:44:35.950Z,17.28
2022-07-29T03:47:05.113Z,17.27
2022-07-29T03:49:32.352Z,17.24
2022-07-29T03:51:59.428Z,17.27
2022-07-29T03:54:26.915Z,17.28
2022-07-29T03:56:54.326Z,17.31
2022-07-29T03:59:22.548Z,17.29
2022-07-29T04:01:51.080Z,17.25
2022-07-29T04:04:18.402Z,17.29
2022-07-29T04:06:48.239Z,17.29
2022-07-29T04:09:15.168Z,17.34
2022-07-29T04:12:02.664Z,17.32
2022-07-29T04:14:29.171Z,17.29
2022-07-29T04:16:56.267Z,17.31
2022-07-29T04:19:23.786Z,17.32
2022-07-29T04:21:50.702Z,17.36
2022-07-29T04:24:18.232Z,17.42
2022-07-29T04:26:47.875Z,17.49
2022-07-29T04:29:15.395Z,17.55
2022-07-29T04:31:43.190Z,17.63
2022-07-29T04:34:10.815Z,17.71
2022-07-29T04:36:37.571Z,17.79
2022-07-29T04:39:05.556Z,17.88
2022-07-29T04:41:33.004Z,17.99
2022-07-29T04:44:05.997Z,18.05
2022-07-29T04:46:35.138Z,18.14
2022-07-29T04:49:02.151Z,18.22
2022-07-29T04:51:28.989Z,18.32
2022-07-29T04:53:55.705Z,18.41
2022-07-29T04:56:22.461Z,18.52
2022-07-29T04:58:49.139Z,18.64
2022-07-29T05:01:16.080Z,18.77
2022-07-29T05:03:43.060Z,18.89
2022-07-29T05:06:09.770Z,18.98
2022-07-29T05:08:36.424Z,19.07
2022-07-29T05:11:11.720Z,19.16
2022-07-29T05:13:45.756Z,19.30
2022-07-29T05:16:14.904Z,19.42
2022-07-29T05:18:42.160Z,19.56
2022-07-29T05:21:08.822Z,19.76
2022-07-29T05:23:35.496Z,19.88
2022-07-29T05:26:02.242Z,20.07
2022-07-29T05:28:28.939Z,20.26
2022-07-29T05:30:55.810Z,20.43
2022-07-29T05:33:34.793Z,20.57
2022-07-29T05:36:06.608Z,20.75
2022-07-29T05:38:34.169Z,20.90
2022-07-29T05:41:01.144Z,21.09
2022-07-29T05:43:30.011Z,21.25
2022-07-29T05:45:57.013Z,21.45
2022-07-29T05:48:24.184Z,21.58
2022-07-29T05:50:50.876Z,21.73
2022-07-29T05:53:19.553Z,21.92
2022-07-29T05:55:48.755Z,22.00
2022-07-29T05:58:15.463Z,22.26
2022-07-29T06:00:42.236Z,22.45
2022-07-29T06:03:08.947Z,22.68
2022-07-29T06:05:35.700Z,22.91
2022-07-29T06:08:02.515Z,23.19
2022-07-29T06:10:29.433Z,23.23
2022-07-29T06:12:56.151Z,23.40
2022-07-29T06:15:22.855Z,23.50
2022-07-29T06:17:59.132Z,23.73
2022-07-29T06:20:27.840Z,23.90
2022-07-29T06:22:54.593Z,24.10
2022-07-29T06:25:21.325Z,24.25
2022-07-29T06:27:47.971Z,24.34
2022-07-29T06:30:15.036Z,24.46
2022-07-29T06:32:43.389Z,24.64
2022-07-29T06:35:37.828Z,24.83
2022-07-29T06:37:59.570Z,24.96
2022-07-29T06:40:45.451Z,25.24
2022-07-29T06:43:12.187Z,25.48
2022-07-29T06:45:42.174Z,25.71
2022-07-29T06:48:09.914Z,25.79
2022-07-29T06:50:36.900Z,26.05
2022-07-29T06:53:04.211Z,26.33
2022-07-29T06:55:30.963Z,26.62
2022-07-29T06:57:57.579Z,26.66
2022-07-29T07:00:26.963Z,26.80
2022-07-29T07:02:53.633Z,26.80
2022-07-29T07:05:20.622Z,27.33
2022-07-29T07:07:47.309Z,27.53
2022-07-29T07:10:16.236Z,27.70
2022-07-29T07:12:42.948Z,28.13
2022-07-29T07:15:10.125Z,28.26
2022-07-29T07:17:36.831Z,28.19
2022-07-29T07:20:03.925Z,28.55
2022-07-29T07:22:33.415Z,29.19
2022-07-29T07:25:02.398Z,29.27
2022-07-29T07:27:29.279Z,29.65
2022-07-29T07:29:55.915Z,29.92
2022-07-29T07:32:22.649Z,29.97
2022-07-29T07:34:49.427Z,30.14
2022-07-29T07:37:16.186Z,30.51
2022-07-29T07:39:42.930Z,30.68
2022-07-29T07:42:11.351Z,30.84
2022-07-29T07:44:57.326Z,31.20
2022-07-29T07:47:25.625Z,31.54
2022-07-29T07:49:54.775Z,31.61
2022-07-29T07:52:22.556Z,32.01
2022-07-29T07:54:49.456Z,32.45
2022-07-29T07:57:16.783Z,32.32
2022-07-29T07:59:43.676Z,32.42
2022-07-29T08:02:10.764Z,32.89
2022-07-29T08:04:37.759Z,33.02
2022-07-29T08:07:04.679Z,33.11
2022-07-29T08:09:31.436Z,33.82
2022-07-29T08:12:00.501Z,33.09
2022-07-29T08:14:27.147Z,32.24
2022-07-29T08:16:54.715Z,32.10
2022-07-29T08:19:21.585Z,31.44
2022-07-29T08:21:48.739Z,31.45
2022-07-29T08:24:33.935Z,32.82
2022-07-29T08:27:00.758Z,33.40
2022-07-29T08:29:27.455Z,34.42
2022-07-29T08:31:54.584Z,33.83
2022-07-29T08:34:25.715Z,32.46
2022-07-29T08:36:54.629Z,32.01
2022-07-29T08:39:21.294Z,31.39
2022-07-29T08:41:48.786Z,31.23
2022-07-29T08:44:30.721Z,31.01
2022-07-29T08:46:58.412Z,31.21
2022-07-29T08:49:25.312Z,30.73
2022-07-29T08:51:54.967Z,30.00
2022-07-29T08:54:24.403Z,29.17
2022-07-29T08:56:52.065Z,28.94
2022-07-29T08:59:23.723Z,28.50
2022-07-29T09:01:53.770Z,28.19
2022-07-29T09:04:22.055Z,28.15
2022-07-29T09:06:52.321Z,27.89
2022-07-29T09:09:19.131Z,27.74
2022-07-29T09:11:45.982Z,27.64
2022-07-29T09:14:14.672Z,27.58
2022-07-29T09:16:58.143Z,27.52
2022-07-29T09:19:32.303Z,27.52
2022-07-29T09:22:01.176Z,27.54
2022-07-29T09:24:48.501Z,27.56
2022-07-29T09:27:27.578Z,27.57
2022-07-29T09:30:04.822Z,27.50
2022-07-29T09:32:32.008Z,27.50
2022-07-29T09:35:21.739Z,27.77
2022-07-29T09:37:48.744Z,28.05
2022-07-29T09:40:18.530Z,28.09
2022-07-29T09:42:45.636Z,28.32
2022-07-29T09:45:13.445Z,28.55
2022-07-29T09:47:49.851Z,28.64
2022-07-29T09:50:17.308Z,28.89
2022-07-29T09:52:52.533Z,28.76
2022-07-29T09:55:19.930Z,28.81
2022-07-29T09:57:47.952Z,28.69
2022-07-29T10:00:19.932Z,28.53
2022-07-29T10:02:47.146Z,28.04
2022-07-29T10:05:24.159Z,27.79
2022-07-29T10:07:54.308Z,27.47
2022-07-29T10:10:31.754Z,27.14
2022-07-29T10:13:07.831Z,26.96
2022-07-29T10:15:40.043Z,26.89
2022-07-29T10:18:10.142Z,26.52
2022-07-29T10:20:37.991Z,26.49
2022-07-29T10:23:05.578Z,26.40
2022-07-29T10:25:32.826Z,26.31
2022-07-29T10:28:00.087Z,26.31
2022-07-29T10:30:28.534Z,26.28
2022-07-29T10:33:01.274Z,26.24
2022-07-29T10:36:06.506Z,26.32
2022-07-29T10:38:48.407Z,26.43
2022-07-29T10:41:43.730Z,26.56
2022-07-29T10:44:23.143Z,26.78
2022-07-29T10:46:52.345Z,27.01
2022-07-29T10:49:25.096Z,27.35
2022-07-29T10:52:02.674Z,27.86
2022-07-29T10:54:36.333Z,28.13
2022-07-29T10:57:53.775Z,28.77
2022-07-29T11:00:17.070Z,29.61
2022-07-29T11:02:46.925Z,30.14
2022-07-29T11:05:21.868Z,30.37
2022-07-29T11:08:20.116Z,31.68
2022-07-29T11:10:49.854Z,32.00
2022-07-29T11:14:01.557Z,32.83
2022-07-29T11:17:05.921Z,33.27
2022-07-29T11:19:34.391Z,33.44
2022-07-29T11:22:02.788Z,34.77
2022-07-29T11:24:33.090Z,35.63
2022-07-29T11:27:18.373Z,34.37
2022-07-29T11:29:58.554Z,35.88
2022-07-29T11:32:29.194Z,34.81
2022-07-29T11:35:22.291Z,34.86
2022-07-29T11:38:23.628Z,33.65
2022-07-29T11:41:18.490Z,32.04
2022-07-29T11:46:49.697Z,30.86
2022-07-29T11:49:31.982Z,30.52
2022-07-29T11:52:02.495Z,30.28
2022-07-29T11:54:38.956Z,29.87
2022-07-29T11:57:22.895Z,29.55
2022-07-29T12:00:12.667Z,29.43
2022-07-29T12:02:48.616Z,29.74
2022-07-29T12:05:23.993Z,30.30
2022-07-29T12:08:14.727Z,29.94
2022-07-29T12:10:43.066Z,29.41
2022-07-29T12:13:11.589Z,29.07
2022-07-29T12:15:47.241Z,28.82
2022-07-29T12:18:18.337Z,28.58
2022-07-29T12:20:46.536Z,28.15
2022-07-29T12:23:13.914Z,28.03
2022-07-29T12:25:44.543Z,28.06
2022-07-29T12:28:27.578Z,28.24
2022-07-29T12:30:54.838Z,28.68
2022-07-29T12:33:31.001Z,29.54
2022-07-29T12:36:07.306Z,29.59
2022-07-29T12:38:41.230Z,29.42
2022-07-29T12:41:07.998Z,29.20
2022-07-29T12:43:34.929Z,29.13
2022-07-29T12:46:13.829Z,28.94
2022-07-29T12:48:42.909Z,28.90
2022-07-29T12:51:11.070Z,28.83
2022-07-29T12:53:38.919Z,28.72
2022-07-29T12:56:20.524Z,28.52
2022-07-29T12:58:53.744Z,28.38
2022-07-29T13:01:21.832Z,28.31
2022-07-29T13:03:57.424Z,28.36
2022-07-29T13:06:50.914Z,28.15
2022-07-29T13:09:20.470Z,28.05
2022-07-29T13:11:54.414Z,28.03
2022-07-29T13:14:37.859Z,28.21
2022-07-29T13:17:19.132Z,28.26
2022-07-29T13:19:54.112Z,28.41
2022-07-29T13:22:23.912Z,28.54
2022-07-29T13:24:58.447Z,28.62
2022-07-29T13:27:27.112Z,28.66
2022-07-29T13:29:57.467Z,28.97
2022-07-29T13:32:28.404Z,30.19
2022-07-29T13:34:57.520Z,31.47
2022-07-29T13:37:25.039Z,31.41
2022-07-29T13:39:53.357Z,31.62
2022-07-29T13:42:20.641Z,31.62
2022-07-29T13:44:49.589Z,31.48
2022-07-29T13:47:17.208Z,31.15
2022-07-29T13:49:43.890Z,30.80
2022-07-29T13:52:11.090Z,30.81
2022-07-29T13:54:42.386Z,30.45
2022-07-29T13:57:11.746Z,30.43
2022-07-29T13:59:41.772Z,30.43
2022-07-29T14:02:09.897Z,30.76
2022-07-29T14:04:36.871Z,32.05
2022-07-29T14:07:07.306Z,32.11
2022-07-29T14:09:40.995Z,32.97
2022-07-29T14:12:08.930Z,33.93
2022-07-29T14:14:37.348Z,32.72
2022-07-29T14:17:04.715Z,32.03
2022-07-29T14:19:33.047Z,31.49
2022-07-29T14:22:00.202Z,31.15
2022-07-29T14:24:27.426Z,30.64
2022-07-29T14:26:54.194Z,30.48
2022-07-29T14:29:21.063Z,30.28
2022-07-29T14:31:47.765Z,30.42
2022-07-29T14:34:16.427Z,30.68
2022-07-29T14:36:43.286Z,30.97
2022-07-29T14:39:09.947Z,31.72
2022-07-29T14:41:36.785Z,31.93
2022-07-29T14:44:03.775Z,31.78
2022-07-29T14:46:30.532Z,31.89
2022-07-29T14:48:57.431Z,32.08
2022-07-29T14:51:24.282Z,31.55
2022-07-29T14:53:59.164Z,31.45
2022-07-29T14:56:46.813Z,31.21
2022-07-29T14:59:12.468Z,31.24
2022-07-29T15:01:39.194Z,30.83
2022-07-29T15:04:05.946Z,30.82
2022-07-29T15:06:32.660Z,30.86
2022-07-29T15:08:59.399Z,30.68
2022-07-29T15:11:26.477Z,30.69
2022-07-29T15:13:53.338Z,30.46
2022-07-29T15:16:20.154Z,30.44
2022-07-29T15:18:46.904Z,30.40
2022-07-29T15:21:13.571Z,30.22
2022-07-29T15:23:40.316Z,30.12
2022-07-29T15:26:06.987Z,30.14
2022-07-29T15:28:33.750Z,30.01
2022-07-29T15:31:00.402Z,29.83
2022-07-29T15:33:27.404Z,29.70
2022-07-29T15:35:54.110Z,29.62
2022-07-29T15:38:20.856Z,29.49
2022-07-29T15:40:55.826Z,29.48
2022-07-29T15:43:22.824Z,29.35
2022-07-29T15:46:08.687Z,29.27
2022-07-29T15:48:39.245Z,28.97
2022-07-29T15:51:06.071Z,29.05
2022-07-29T15:53:33.095Z,29.05
2022-07-29T15:56:02.145Z,29.07
2022-07-29T15:58:28.903Z,29.03
2022-07-29T16:00:55.800Z,28.99
2022-07-29T16:03:22.991Z,28.98
2022-07-29T16:05:49.754Z,28.89
2022-07-29T16:08:18.924Z,28.75
2022-07-29T16:10:45.620Z,28.69
2022-07-29T16:13:12.265Z,28.62
2022-07-29T16:15:45.165Z,28.47
2022-07-29T16:18:30.303Z,28.46
2022-07-29T16:20:57.311Z,28.46
2022-07-29T16:23:24.742Z,28.30
2022-07-29T16:25:59.707Z,28.27
2022-07-29T16:28:27.851Z,28.15
2022-07-29T16:30:54.687Z,28.16
2022-07-29T16:33:21.399Z,28.06
2022-07-29T16:35:48.115Z,27.98
2022-07-29T16:38:14.848Z,27.97
2022-07-29T16:40:42.109Z,27.87
2022-07-29T16:43:09.066Z,27.78
2022-07-29T16:45:45.145Z,27.73
2022-07-29T16:48:14.078Z,27.67
2022-07-29T16:50:41.208Z,27.65
2022-07-29T16:53:10.476Z,27.55
2022-07-29T16:55:37.326Z,27.40
2022-07-29T16:58:04.035Z,27.29
2022-07-29T17:00:30.843Z,27.16
2022-07-29T17:02:57.779Z,26.93
2022-07-29T17:05:24.512Z,26.79
2022-07-29T17:07:51.197Z,26.59
2022-07-29T17:10:18.021Z,26.45
2022-07-29T17:12:44.764Z,26.22
2022-07-29T17:15:12.232Z,26.10
2022-07-29T17:17:55.288Z,25.99
2022-07-29T17:20:23.866Z,25.84
2022-07-29T17:22:50.566Z,25.79
2022-07-29T17:25:21.073Z,25.76
2022-07-29T17:27:50.441Z,25.75
2022-07-29T17:30:17.942Z,25.75
2022-07-29T17:32:44.725Z,25.70
2022-07-29T17:35:30.112Z,25.57
2022-07-29T17:37:57.184Z,25.50
2022-07-29T17:40:23.902Z,25.47
2022-07-29T17:42:50.573Z,25.41
2022-07-29T17:45:17.386Z,25.35
2022-07-29T17:47:45.515Z,25.28
2022-07-29T17:50:12.162Z,25.23
2022-07-29T17:52:39.227Z,25.20
2022-07-29T17:55:07.258Z,25.22
2022-07-29T17:57:34.253Z,25.04
2022-07-29T18:00:01.104Z,24.90
2022-07-29T18:02:28.485Z,24.77
2022-07-29T18:04:55.385Z,24.66
2022-07-29T18:07:22.139Z,24.54
2022-07-29T18:09:48.806Z,24.47
2022-07-29T18:12:16.036Z,24.34
2022-07-29T18:14:42.743Z,24.25
2022-07-29T18:17:09.416Z,24.11
2022-07-29T18:19:36.163Z,24.05
2022-07-29T18:22:05.322Z,23.92
2022-07-29T18:24:32.764Z,23.89
2022-07-29T18:26:59.848Z,23.86
2022-07-29T18:29:29.012Z,23.82
2022-07-29T18:31:56.364Z,23.76
2022-07-29T18:34:23.161Z,23.69
2022-07-29T18:36:49.890Z,23.64
2022-07-29T18:39:20.736Z,23.59
2022-07-29T18:41:50.153Z,23.58
2022-07-29T18:44:21.665Z,23.53
2022-07-29T18:46:49.073Z,23.50
2022-07-29T18:49:16.005Z,23.50
2022-07-29T18:51:42.844Z,23.44
2022-07-29T18:54:10.547Z,23.39
2022-07-29T18:56:37.432Z,23.33
2022-07-29T18:59:04.916Z,23.30
2022-07-29T19:01:32.284Z,23.27
2022-07-29T19:03:59.802Z,23.26
2022-07-29T19:06:26.622Z,23.22
2022-07-29T19:08:53.656Z,23.18
2022-07-29T19:11:20.336Z,23.13
2022-07-29T19:13:49.323Z,23.11
2022-07-29T19:16:16.094Z,23.09
2022-07-29T19:18:43.597Z,23.08
2022-07-29T19:21:11.164Z,23.06
2022-07-29T19:24:01.390Z,23.07
2022-07-29T19:26:26.261Z,23.07
2022-07-29T19:28:53.352Z,23.03
2022-07-29T19:31:20.210Z,22.99
2022-07-29T19:33:47.053Z,23.07
2022-07-29T19:36:13.765Z,23.05
2022-07-29T19:38:40.534Z,23.06
2022-07-29T19:41:07.321Z,23.05
2022-07-29T19:43:50.431Z,23.05
2022-07-29T19:46:22.916Z,23.02
2022-07-29T19:48:50.040Z,23.02
2022-07-29T19:51:17.620Z,23.01
2022-07-29T19:53:44.415Z,23.11
2022-07-29T19:56:11.147Z,23.32
2022-07-29T19:58:39.163Z,23.48
2022-07-29T20:01:10.506Z,23.57
2022-07-29T20:03:39.960Z,23.63
2022-07-29T20:06:07.564Z,23.65
2022-07-29T20:08:34.670Z,23.66
2022-07-29T20:11:01.789Z,23.33
2022-07-29T20:13:31.251Z,23.05
2022-07-29T20:15:58.250Z,23.01
2022-07-29T20:18:25.041Z,22.57
2022-07-29T20:20:51.897Z,22.12
2022-07-29T20:23:19.386Z,21.84
2022-07-29T20:25:47.183Z,21.66
2022-07-29T20:28:14.300Z,21.43
2022-07-29T20:30:41.726Z,21.20
2022-07-29T20:33:08.460Z,21.01
2022-07-29T20:35:35.142Z,20.82
2022-07-29T20:38:01.930Z,20.62
2022-07-29T20:40:29.300Z,20.41
2022-07-29T20:42:56.145Z,20.26
2022-07-29T20:45:23.577Z,20.20
2022-07-29T20:47:51.925Z,20.18
2022-07-29T20:50:20.613Z,20.05
2022-07-29T20:52:51.182Z,19.77
2022-07-29T20:55:17.988Z,19.63
2022-07-29T20:57:44.676Z,19.52
2022-07-29T21:00:11.940Z,19.53
2022-07-29T21:02:39.045Z,19.46
2022-07-29T21:05:06.519Z,19.41
2022-07-29T21:07:33.415Z,19.34
2022-07-29T21:10:00.180Z,19.42
2022-07-29T21:12:28.615Z,19.48
2022-07-29T21:14:55.387Z,19.53
2022-07-29T21:17:22.729Z,19.42
2022-07-29T21:19:52.739Z,19.42
2022-07-29T21:22:21.900Z,19.38
2022-07-29T21:24:49.232Z,19.42
2022-07-29T21:27:34.524Z,19.57
2022-07-29T21:30:01.438Z,19.42
2022-07-29T21:32:31.164Z,19.28
2022-07-29T21:34:58.603Z,19.22
2022-07-29T21:37:25.553Z,19.19
2022-07-29T21:39:53.647Z,19.00
2022-07-29T21:42:20.404Z,18.87
2022-07-29T21:44:47.285Z,18.89
2022-07-29T21:47:14.103Z,18.84
2022-07-29T21:49:40.756Z,18.87
2022-07-29T21:52:08.051Z,18.87
2022-07-29T21:54:35.842Z,18.80
2022-07-29T21:57:05.002Z,18.82
2022-07-29T21:59:32.017Z,18.81
2022-07-29T22:02:01.719Z,18.80
2022-07-29T22:04:29.610Z,18.83
2022-07-29T22:06:57.745Z,18.83
2022-07-29T22:09:25.416Z,18.83
2022-07-29T22:11:52.284Z,18.80
2022-07-29T22:14:19.191Z,18.73
2022-07-29T22:16:46.509Z,18.70
2022-07-29T22:19:14.668Z,18.68
2022-07-29T22:21:41.854Z,18.68
2022-07-29T22:24:09.897Z,18.67
2022-07-29T22:26:37.883Z,18.66
2022-07-29T22:29:04.611Z,18.64
2022-07-29T22:31:31.630Z,18.63
2022-07-29T22:33:58.357Z,18.61
2022-07-29T22:36:25.930Z,18.51
2022-07-29T22:38:52.683Z,18.49
2022-07-29T22:41:19.386Z,18.46
2022-07-29T22:43:46.111Z,18.50
2022-07-29T22:46:12.941Z,18.45
2022-07-29T22:48:39.695Z,18.42
2022-07-29T22:51:06.442Z,18.47
2022-07-29T22:53:33.174Z,18.51
2022-07-29T22:55:59.934Z,18.51
2022-07-29T22:58:26.636Z,18.48
2022-07-29T23:00:53.480Z,18.49
2022-07-29T23:03:20.702Z,18.48
2022-07-29T23:05:47.481Z,18.46
2022-07-29T23:08:14.177Z,18.42
2022-07-29T23:10:40.826Z,18.34
2022-07-29T23:13:07.511Z,18.23
2022-07-29T23:15:34.317Z,18.09
2022-07-29T23:18:00.977Z,18.05
2022-07-29T23:20:28.026Z,18.04
2022-07-29T23:22:54.944Z,18.04
2022-07-29T23:25:21.668Z,18.08
2022-07-29T23:27:48.526Z,18.07
2022-07-29T23:30:15.368Z,18.11
2022-07-29T23:32:42.082Z,18.21
2022-07-29T23:35:09.298Z,18.28
2022-07-29T23:37:36.653Z,18.29
2022-07-29T23:40:04.929Z,18.26
2022-07-29T23:42:31.629Z,18.25
2022-07-29T23:44:58.291Z,18.22
2022-07-29T23:47:25.017Z,18.25
2022-07-29T23:49:51.727Z,18.25
2022-07-29T23:52:18.503Z,18.25
2022-07-29T23:54:45.230Z,18.25
2022-07-29T23:57:12.042Z,18.22
2022-07-29T23:59:38.831Z,18.15
